Time;durP1;ratioP1;P1;durP2;ratioP2;P2;SDS_P1;SDS_P2;PMS_P1;PMS_P2;Temp;Humidity;BMP_temperature;BMP_pressure;BME280_temperature;BME280_humidity;BME280_pressure;Samples;Min_cycle;Max_cycle;Signal;HPM_P1;HPM_P2
2023/08/08 00:00:50;;;;;;;1.52;1.17;;;16.90;99.90;;;;;;4938383;28;20030;-87
2023/08/08 00:03:16;;;;;;;1.70;1.10;;;16.90;99.90;;;;;;4958430;28;20041;-89
2023/08/08 00:05:41;;;;;;;1.30;1.10;;;16.90;99.90;;;;;;4937902;28;20088;-87
2023/08/08 00:08:07;;;;;;;1.60;0.90;;;16.80;99.90;;;;;;4964723;28;20577;-86
2023/08/08 00:10:33;;;;;;;2.23;1.10;;;16.80;99.90;;;;;;4944026;28;20280;-87
2023/08/08 00:12:59;;;;;;;4.78;1.10;;;16.80;99.90;;;;;;4944918;28;20705;-86
2023/08/08 00:15:24;;;;;;;1.50;1.07;;;15.30;99.90;;;;;;4947990;28;22307;-88
2023/08/08 00:17:50;;;;;;;1.88;1.10;;;16.80;99.90;;;;;;4934079;28;20025;-88
2023/08/08 00:20:16;;;;;;;1.37;1.00;;;16.80;99.90;;;;;;4950886;28;20436;-84
2023/08/08 00:22:41;;;;;;;1.98;1.00;;;16.70;99.90;;;;;;4954071;28;20519;-85
2023/08/08 00:25:08;;;;;;;1.43;1.10;;;16.80;99.90;;;;;;4938623;28;21491;-87
2023/08/08 00:27:34;;;;;;;1.98;1.10;;;16.70;99.90;;;;;;4948446;28;20602;-89
2023/08/08 00:30:01;;;;;;;1.63;1.10;;;16.70;99.90;;;;;;4942809;28;20645;-88
2023/08/08 00:32:27;;;;;;;2.88;1.20;;;16.70;99.90;;;;;;4948893;28;20522;-88
2023/08/08 00:34:53;;;;;;;2.37;1.20;;;;;;;;;;4950033;28;20018;-88
2023/08/08 00:37:18;;;;;;;2.85;1.08;;;16.60;99.90;;;;;;4952474;28;20022;-88
2023/08/08 00:39:46;;;;;;;1.90;1.10;;;16.60;99.90;;;;;;4945887;28;20023;-88
2023/08/08 00:42:13;;;;;;;1.73;1.30;;;16.60;99.90;;;;;;4954159;28;20670;-88
2023/08/08 00:44:40;;;;;;;1.98;1.10;;;16.60;99.90;;;;;;4963675;28;20154;-86
2023/08/08 00:47:10;;;;;;;1.63;1.10;;;16.60;99.90;;;;;;4946941;28;20698;-89
2023/08/08 00:49:36;;;;;;;1.50;1.05;;;16.60;99.90;;;;;;4941763;28;20133;-85
2023/08/08 00:52:05;;;;;;;3.92;1.42;;;16.50;99.90;;;;;;4946556;28;20833;-90
2023/08/08 00:54:31;;;;;;;2.23;1.03;;;16.50;99.90;;;;;;4967149;28;20030;-91
2023/08/08 00:56:57;;;;;;;2.63;1.20;;;16.40;99.90;;;;;;4940612;28;20123;-86
2023/08/08 00:59:23;;;;;;;1.88;1.30;;;16.50;99.90;;;;;;4980210;28;20043;-87
2023/08/08 01:01:49;;;;;;;2.27;1.40;;;16.00;99.90;;;;;;4958032;28;20057;-88
2023/08/08 01:04:16;;;;;;;1.73;1.10;;;16.40;99.90;;;;;;4916114;28;20539;-88
2023/08/08 01:06:54;;;;;;;1.85;1.10;;;16.40;99.90;;;;;;4962518;28;20047;-85
2023/08/08 01:09:37;;;;;;;2.88;1.20;;;16.40;99.90;;;;;;4959941;28;20283;-87
2023/08/08 01:12:05;;;;;;;1.70;1.00;;;16.30;99.90;;;;;;4946830;28;20045;-87
2023/08/08 01:14:33;;;;;;;2.33;1.20;;;16.30;99.90;;;;;;4943249;28;20280;-88
2023/08/08 01:17:00;;;;;;;2.08;1.15;;;16.30;99.90;;;;;;4967312;28;20030;-87
2023/08/08 01:19:30;;;;;;;2.92;1.27;;;16.60;99.90;;;;;;4944608;28;20931;-86
2023/08/08 01:22:01;;;;;;;2.38;1.08;;;16.10;99.90;;;;;;4958241;28;20022;-85
2023/08/08 01:24:30;;;;;;;2.60;1.30;;;16.20;99.90;;;;;;4951628;28;20233;-85
2023/08/08 01:26:56;;;;;;;1.77;1.08;;;16.20;99.90;;;;;;4944950;28;20194;-88
2023/08/08 01:29:22;;;;;;;2.10;1.00;;;16.20;99.90;;;;;;4926767;28;20112;-90
2023/08/08 01:31:47;;;;;;;2.07;1.10;;;16.90;99.90;;;;;;4963498;28;20424;-88
2023/08/08 01:34:14;;;;;;;2.53;1.38;;;16.10;99.90;;;;;;4940153;28;20046;-86
2023/08/08 01:36:56;;;;;;;3.42;1.52;;;16.20;99.90;;;;;;4942668;28;20689;-88
2023/08/08 01:39:31;;;;;;;1.50;1.10;;;16.10;99.90;;;;;;4945353;28;20049;-86
2023/08/08 01:41:58;;;;;;;2.93;1.27;;;16.10;99.90;;;;;;4959438;28;20011;-87
2023/08/08 01:44:25;;;;;;;2.13;1.23;;;17.10;99.90;;;;;;4954396;28;20535;-90
2023/08/08 01:46:53;;;;;;;2.50;1.10;;;16.10;99.90;;;;;;4964281;28;20033;-87
2023/08/08 01:49:19;;;;;;;1.55;1.10;;;16.10;99.90;;;;;;4949403;28;20074;-86
2023/08/08 01:51:45;;;;;;;3.00;1.20;;;16.00;99.90;;;;;;4949214;28;20073;-85
2023/08/08 01:54:11;;;;;;;1.85;1.35;;;;;;;;;;4933601;28;20053;-89
2023/08/08 01:56:37;;;;;;;2.95;1.20;;;16.00;99.90;;;;;;4960975;28;20117;-88
2023/08/08 01:59:02;;;;;;;2.13;1.17;;;16.00;99.90;;;;;;4941416;28;20038;-86
2023/08/08 02:01:28;;;;;;;3.10;1.20;;;16.00;99.90;;;;;;4946344;28;20289;-88
2023/08/08 02:03:54;;;;;;;3.93;1.53;;;16.00;99.90;;;;;;4967302;28;20495;-87
2023/08/08 02:06:20;;;;;;;3.57;1.37;;;15.90;99.90;;;;;;4944898;28;20292;-89
2023/08/08 02:08:46;;;;;;;2.17;1.25;;;15.90;99.90;;;;;;4927282;28;20038;-88
2023/08/08 02:11:12;;;;;;;2.17;1.17;;;15.90;99.90;;;;;;4954321;28;20034;-88
2023/08/08 02:13:37;;;;;;;1.97;1.30;;;15.90;99.90;;;;;;4946958;28;20026;-89
2023/08/08 02:16:03;;;;;;;2.65;1.10;;;15.90;99.90;;;;;;4937795;28;20106;-87
2023/08/08 02:18:29;;;;;;;2.13;1.30;;;15.80;99.90;;;;;;4961558;28;20018;-89
2023/08/08 02:20:54;;;;;;;1.70;1.20;;;15.90;99.90;;;;;;4977660;28;21201;-87
2023/08/08 02:23:20;;;;;;;2.10;1.13;;;15.80;99.90;;;;;;4962645;28;20249;-88
2023/08/08 02:25:46;;;;;;;2.28;1.30;;;15.80;99.90;;;;;;4967090;28;20497;-84
2023/08/08 02:28:12;;;;;;;4.00;1.20;;;15.80;99.90;;;;;;4969489;28;20239;-90
2023/08/08 02:30:38;;;;;;;2.97;1.30;;;15.80;99.90;;;;;;4952239;28;20844;-88
2023/08/08 02:33:04;;;;;;;2.67;1.40;;;15.80;99.90;;;;;;4936988;28;20044;-89
2023/08/08 02:35:30;;;;;;;3.93;1.77;;;15.80;99.90;;;;;;4939720;28;20493;-84
2023/08/08 02:37:56;;;;;;;1.70;1.23;;;;;;;;;;4974224;28;20271;-87
2023/08/08 02:40:23;;;;;;;1.70;1.10;;;15.70;99.90;;;;;;4966531;28;20305;-92
2023/08/08 02:42:50;;;;;;;3.40;1.83;;;15.80;99.90;;;;;;4939722;28;20084;-87
2023/08/08 02:45:16;;;;;;;2.50;1.20;;;15.80;99.90;;;;;;4965337;28;20708;-86
2023/08/08 02:47:41;;;;;;;3.07;1.30;;;15.70;99.90;;;;;;4951676;28;20030;-87
2023/08/08 02:50:07;;;;;;;2.78;1.30;;;15.70;99.90;;;;;;4956311;28;20213;-85
2023/08/08 02:52:33;;;;;;;3.92;1.40;;;15.70;99.90;;;;;;4965101;28;20041;-87
2023/08/08 02:54:59;;;;;;;2.70;1.33;;;15.70;99.90;;;;;;4930343;28;20018;-86
2023/08/08 02:57:25;;;;;;;2.22;1.30;;;15.70;99.90;;;;;;4940938;28;20049;-85
2023/08/08 02:59:50;;;;;;;1.90;1.00;;;15.70;99.90;;;;;;4962166;28;20385;-87
2023/08/08 03:02:16;;;;;;;2.38;1.30;;;15.60;99.90;;;;;;4963074;28;20052;-86
2023/08/08 03:04:42;;;;;;;2.93;1.30;;;15.60;99.90;;;;;;4940702;28;20043;-86
2023/08/08 03:07:07;;;;;;;2.90;1.30;;;15.60;99.90;;;;;;4979714;28;20026;-87
2023/08/08 03:09:33;;;;;;;3.00;1.30;;;15.60;99.90;;;;;;4929618;28;20053;-88
2023/08/08 03:11:59;;;;;;;2.00;1.15;;;15.70;99.90;;;;;;4940500;28;20029;-83
2023/08/08 03:14:25;;;;;;;1.50;1.10;;;15.60;99.90;;;;;;4951249;28;20037;-87
2023/08/08 03:16:50;;;;;;;3.22;1.20;;;15.50;99.90;;;;;;4942974;28;20026;-85
2023/08/08 03:19:16;;;;;;;2.73;1.30;;;14.80;99.90;;;;;;4949696;28;20731;-90
2023/08/08 03:21:42;;;;;;;3.67;1.40;;;;;;;;;;4943839;28;20277;-88
2023/08/08 03:24:08;;;;;;;2.42;1.40;;;15.00;99.90;;;;;;4931460;28;20038;-88
2023/08/08 03:26:34;;;;;;;3.15;1.98;;;15.50;99.90;;;;;;4950738;28;20034;-88
2023/08/08 03:29:00;;;;;;;3.07;1.30;;;15.50;99.90;;;;;;4953453;28;20022;-87
2023/08/08 03:31:26;;;;;;;5.07;1.58;;;15.50;99.90;;;;;;4954543;28;20034;-84
2023/08/08 03:33:53;;;;;;;3.00;1.58;;;15.50;99.90;;;;;;4942864;28;20034;-86
2023/08/08 03:36:19;;;;;;;4.80;1.47;;;15.50;99.90;;;;;;4975952;28;20026;-86
2023/08/08 03:38:45;;;;;;;2.08;1.30;;;15.50;99.90;;;;;;4948882;28;20041;-89
2023/08/08 03:41:12;;;;;;;2.42;1.20;;;15.40;99.90;;;;;;4930939;28;20029;-89
2023/08/08 03:43:39;;;;;;;3.72;1.23;;;15.40;99.90;;;;;;4950073;28;20109;-84
2023/08/08 03:46:04;;;;;;;3.75;1.45;;;15.40;99.90;;;;;;4936303;28;20030;-89
2023/08/08 03:48:30;;;;;;;3.73;1.23;;;15.40;99.90;;;;;;4959688;28;20455;-88
2023/08/08 03:50:56;;;;;;;4.67;1.50;;;15.40;99.90;;;;;;4941397;28;20057;-87
2023/08/08 03:53:21;;;;;;;3.63;1.50;;;15.40;99.90;;;;;;4945900;28;20989;-85
2023/08/08 03:55:47;;;;;;;3.78;1.40;;;15.40;99.90;;;;;;4933908;28;20022;-87
2023/08/08 03:58:13;;;;;;;2.87;1.50;;;15.40;99.90;;;;;;4961757;28;20276;-89
2023/08/08 04:00:45;;;;;;;3.58;1.52;;;15.40;99.90;;;;;;4938395;28;20030;-88
2023/08/08 04:03:13;;;;;;;3.70;1.40;;;15.40;99.90;;;;;;4968599;28;20731;-90
2023/08/08 04:05:39;;;;;;;2.95;1.45;;;;;;;;;;4958750;28;20679;-89
2023/08/08 04:08:05;;;;;;;3.92;1.40;;;15.30;99.90;;;;;;4958318;28;20129;-89
2023/08/08 04:10:31;;;;;;;3.92;1.52;;;15.10;99.90;;;;;;4922499;28;20038;-86
2023/08/08 04:12:57;;;;;;;2.50;1.43;;;15.30;99.90;;;;;;4952483;28;20485;-85
2023/08/08 04:15:22;;;;;;;3.88;1.58;;;15.30;99.90;;;;;;4966392;28;20026;-87
2023/08/08 04:17:48;;;;;;;2.33;1.20;;;15.30;99.90;;;;;;4953639;28;20026;-87
2023/08/08 04:20:14;;;;;;;1.65;1.05;;;18.40;99.90;;;;;;4956422;28;20571;-87
2023/08/08 04:22:40;;;;;;;2.67;1.17;;;15.30;99.90;;;;;;4964713;28;20421;-88
2023/08/08 04:25:06;;;;;;;2.37;1.33;;;15.30;99.90;;;;;;4954982;28;20580;-88
2023/08/08 04:27:32;;;;;;;3.10;1.30;;;;;;;;;;4930785;28;20034;-87
2023/08/08 04:29:58;;;;;;;2.90;1.27;;;15.20;99.90;;;;;;4963133;28;20747;-88
2023/08/08 04:32:24;;;;;;;3.57;1.60;;;15.20;99.90;;;;;;4943538;28;20033;-89
2023/08/08 04:34:50;;;;;;;2.80;1.33;;;15.20;99.90;;;;;;4949015;28;20312;-84
2023/08/08 04:37:15;;;;;;;3.85;1.70;;;15.20;99.90;;;;;;4934978;28;20468;-87
2023/08/08 04:39:41;;;;;;;4.00;1.57;;;15.20;99.90;;;;;;4967386;28;20033;-90
2023/08/08 04:42:07;;;;;;;4.78;1.52;;;15.30;99.90;;;;;;4950333;28;20523;-85
2023/08/08 04:44:32;;;;;;;4.77;1.60;;;15.20;99.90;;;;;;4950126;28;20037;-88
2023/08/08 04:46:58;;;;;;;5.22;1.40;;;14.60;99.90;;;;;;4968415;28;20018;-86
2023/08/08 04:49:24;;;;;;;3.73;1.40;;;15.20;99.90;;;;;;4947952;28;20057;-89
2023/08/08 04:51:49;;;;;;;3.03;1.20;;;15.20;99.90;;;;;;4943647;28;20073;-86
2023/08/08 04:54:15;;;;;;;3.93;1.70;;;15.30;99.90;;;;;;4959778;28;20533;-87
2023/08/08 04:56:41;;;;;;;4.82;1.83;;;15.30;99.90;;;;;;4959741;28;20065;-89
2023/08/08 04:59:07;;;;;;;2.50;1.60;;;15.30;99.90;;;;;;4937263;28;20030;-88
2023/08/08 05:01:32;;;;;;;2.97;1.58;;;15.30;99.90;;;;;;4950949;28;20037;-87
2023/08/08 05:03:58;;;;;;;3.43;1.30;;;15.30;99.90;;;;;;4953950;28;20117;-85
2023/08/08 05:06:24;;;;;;;3.83;1.55;;;15.30;99.90;;;;;;4953840;28;20065;-84
2023/08/08 05:08:53;;;;;;;5.07;2.07;;;15.30;99.90;;;;;;4954501;28;20046;-85
2023/08/08 05:11:18;;;;;;;3.78;1.65;;;15.30;99.90;;;;;;4969188;28;20361;-83
2023/08/08 05:13:44;;;;;;;3.60;1.45;;;15.30;99.90;;;;;;4930329;28;20229;-85
2023/08/08 05:16:10;;;;;;;3.77;1.33;;;15.50;99.90;;;;;;4946276;28;20581;-86
2023/08/08 05:18:36;;;;;;;3.03;1.60;;;15.40;99.90;;;;;;4950125;28;20045;-85
2023/08/08 05:21:02;;;;;;;4.03;1.67;;;15.40;99.90;;;;;;4956594;28;20302;-88
2023/08/08 05:23:27;;;;;;;3.40;1.70;;;15.40;99.90;;;;;;4964205;28;20232;-89
2023/08/08 05:25:53;;;;;;;5.47;1.48;;;15.50;99.90;;;;;;4951782;28;20117;-84
2023/08/08 05:28:20;;;;;;;2.63;1.50;;;14.30;99.90;;;;;;4939752;28;20706;-85
2023/08/08 05:30:46;;;;;;;3.63;1.73;;;15.50;99.90;;;;;;4950376;28;20030;-86
2023/08/08 05:33:12;;;;;;;5.13;1.50;;;15.50;99.90;;;;;;4940037;28;20104;-84
2023/08/08 05:35:37;;;;;;;3.43;1.93;;;15.50;99.90;;;;;;4977450;28;20279;-86
2023/08/08 05:38:03;;;;;;;3.65;1.65;;;15.50;99.90;;;;;;4944059;28;20485;-86
2023/08/08 05:40:29;;;;;;;3.17;1.63;;;15.60;99.90;;;;;;4950890;28;20246;-89
2023/08/08 05:42:54;;;;;;;3.20;1.58;;;15.60;99.90;;;;;;4962177;28;20054;-83
2023/08/08 05:45:20;;;;;;;2.60;1.40;;;15.60;99.90;;;;;;4945901;28;20486;-88
2023/08/08 05:47:46;;;;;;;4.57;1.92;;;15.70;99.90;;;;;;4968793;28;20026;-87
2023/08/08 05:50:12;;;;;;;3.03;1.30;;;18.20;99.90;;;;;;4950050;28;20037;-84
2023/08/08 05:52:37;;;;;;;4.07;1.80;;;15.80;99.90;;;;;;4950903;28;20045;-86
2023/08/08 05:55:03;;;;;;;3.20;1.67;;;15.80;99.90;;;;;;4937755;28;20050;-86
2023/08/08 05:57:29;;;;;;;5.32;1.80;;;15.80;99.90;;;;;;4941065;28;20026;-89
2023/08/08 05:59:55;;;;;;;3.53;1.40;;;15.90;99.90;;;;;;4930765;28;20400;-87
2023/08/08 06:02:20;;;;;;;2.43;1.50;;;16.00;99.90;;;;;;4944938;28;20269;-86
2023/08/08 06:04:46;;;;;;;3.70;1.43;;;16.00;99.90;;;;;;4949501;28;20594;-84
2023/08/08 06:07:12;;;;;;;3.80;1.92;;;16.10;99.90;;;;;;4954496;28;20034;-86
2023/08/08 06:09:38;;;;;;;3.40;1.30;;;16.20;99.90;;;;;;4924352;28;20029;-83
2023/08/08 06:12:04;;;;;;;4.47;1.70;;;16.30;99.90;;;;;;4954897;28;20085;-82
2023/08/08 06:14:30;;;;;;;3.35;1.50;;;16.40;99.90;;;;;;4951964;28;20738;-89
2023/08/08 06:16:56;;;;;;;3.33;1.40;;;16.50;99.90;;;;;;4933356;28;20387;-85
2023/08/08 06:19:22;;;;;;;2.77;1.40;;;16.60;99.90;;;;;;4946028;28;20713;-86
2023/08/08 06:21:48;;;;;;;3.92;1.63;;;16.70;99.90;;;;;;4956074;28;20378;-83
2023/08/08 06:24:14;;;;;;;4.00;1.93;;;16.70;99.90;;;;;;4931327;28;21039;-84
2023/08/08 06:26:40;;;;;;;3.35;1.40;;;16.80;99.90;;;;;;4964956;28;20026;-87
2023/08/08 06:29:05;;;;;;;3.17;1.30;;;16.90;99.90;;;;;;4956224;28;20150;-86
2023/08/08 06:31:31;;;;;;;2.73;1.40;;;17.00;99.90;;;;;;4956306;28;20289;-86
2023/08/08 06:33:57;;;;;;;2.97;1.30;;;17.10;99.90;;;;;;4948661;28;20023;-85
2023/08/08 06:36:23;;;;;;;1.90;1.30;;;17.10;99.90;;;;;;4932796;28;20350;-86
2023/08/08 06:38:48;;;;;;;3.08;1.50;;;17.20;99.90;;;;;;4946113;28;20122;-91
2023/08/08 06:41:14;;;;;;;5.03;1.50;;;17.20;99.90;;;;;;4952005;28;20034;-85
2023/08/08 06:43:40;;;;;;;3.30;1.20;;;17.20;99.90;;;;;;4962235;28;20501;-87
2023/08/08 06:46:06;;;;;;;3.60;1.60;;;17.20;99.90;;;;;;4944408;28;20034;-85
2023/08/08 06:48:32;;;;;;;3.65;1.60;;;17.20;99.90;;;;;;4928207;28;22351;-85
2023/08/08 06:50:57;;;;;;;2.53;1.40;;;17.30;99.90;;;;;;4954233;28;20457;-82
2023/08/08 06:53:23;;;;;;;4.30;1.38;;;17.30;99.90;;;;;;4946101;28;20043;-85
2023/08/08 06:55:49;;;;;;;4.03;1.50;;;17.50;99.90;;;;;;4950573;28;20126;-82
2023/08/08 06:58:14;;;;;;;3.07;1.43;;;17.50;99.90;;;;;;4952288;28;20109;-88
2023/08/08 07:00:40;;;;;;;4.05;1.40;;;17.60;99.90;;;;;;4943922;28;20058;-84
2023/08/08 07:03:06;;;;;;;3.63;1.50;;;17.70;99.90;;;;;;4935094;28;20397;-88
2023/08/08 07:05:32;;;;;;;3.55;1.55;;;17.80;99.90;;;;;;4947704;28;20992;-82
2023/08/08 07:07:58;;;;;;;3.53;1.50;;;17.90;99.90;;;;;;4947502;28;20484;-88
2023/08/08 07:10:23;;;;;;;4.68;1.40;;;18.00;99.90;;;;;;4949223;28;20027;-86
2023/08/08 07:12:49;;;;;;;5.13;1.53;;;18.10;99.90;;;;;;4941693;28;20053;-89
2023/08/08 07:15:15;;;;;;;3.13;1.30;;;18.20;99.90;;;;;;4951078;28;20392;-87
2023/08/08 07:17:41;;;;;;;3.35;1.75;;;;;;;;;;4938138;28;20057;-82
2023/08/08 07:20:08;;;;;;;3.45;1.40;;;18.40;99.90;;;;;;4943842;28;20512;-86
2023/08/08 07:22:34;;;;;;;3.33;1.50;;;18.50;99.90;;;;;;4932879;28;20030;-86
2023/08/08 07:24:59;;;;;;;3.25;1.23;;;18.60;99.90;;;;;;4940899;28;20089;-84
2023/08/08 07:27:26;;;;;;;2.65;1.38;;;18.70;99.90;;;;;;4946512;28;20441;-85
2023/08/08 07:29:52;;;;;;;3.63;1.27;;;18.80;99.90;;;;;;4965139;28;20497;-86
2023/08/08 07:32:18;;;;;;;3.05;1.42;;;18.90;99.90;;;;;;4953022;28;20089;-88
2023/08/08 07:34:44;;;;;;;4.83;1.50;;;19.00;99.90;;;;;;4916367;28;20027;-87
2023/08/08 07:37:09;;;;;;;2.90;1.50;;;19.10;99.90;;;;;;4968596;28;20023;-88
2023/08/08 07:39:35;;;;;;;2.33;1.40;;;19.10;99.90;;;;;;4928761;28;20037;-85
2023/08/08 07:42:01;;;;;;;3.63;1.60;;;19.20;99.90;;;;;;4965632;28;20130;-84
2023/08/08 07:44:27;;;;;;;3.40;1.30;;;19.30;99.90;;;;;;4947897;28;20685;-88
2023/08/08 07:46:52;;;;;;;3.07;1.50;;;19.40;99.90;;;;;;4974605;28;20267;-82
2023/08/08 07:49:18;;;;;;;4.72;1.77;;;19.40;99.90;;;;;;4924136;28;20436;-87
2023/08/08 07:51:44;;;;;;;2.37;1.40;;;19.50;99.90;;;;;;4950648;28;20669;-89
2023/08/08 07:54:10;;;;;;;4.53;1.30;;;19.50;99.90;;;;;;4935250;28;20052;-86
2023/08/08 07:56:36;;;;;;;2.97;1.38;;;19.50;99.90;;;;;;4952148;28;20054;-84
2023/08/08 07:59:03;;;;;;;4.30;1.40;;;19.60;99.90;;;;;;4935393;28;20035;-86
2023/08/08 08:01:29;;;;;;;2.50;1.60;;;19.60;99.90;;;;;;4934534;28;20031;-86
2023/08/08 08:03:55;;;;;;;4.07;1.50;;;19.60;99.90;;;;;;4942001;28;20035;-84
2023/08/08 08:06:21;;;;;;;2.77;1.40;;;19.70;99.90;;;;;;4925786;28;20327;-90
2023/08/08 08:08:47;;;;;;;3.67;1.50;;;19.70;99.90;;;;;;4968188;28;20030;-86
2023/08/08 08:11:13;;;;;;;2.35;1.33;;;19.80;99.90;;;;;;4946773;28;20044;-84
2023/08/08 08:13:39;;;;;;;4.20;1.70;;;19.80;99.90;;;;;;4951436;28;20113;-88
2023/08/08 08:16:05;;;;;;;3.22;1.27;;;19.80;99.90;;;;;;4946361;28;20406;-87
2023/08/08 08:18:32;;;;;;;4.18;1.60;;;19.80;99.90;;;;;;4943821;28;20442;-90
2023/08/08 08:20:57;;;;;;;3.20;1.40;;;19.90;99.90;;;;;;4933825;28;20037;-87
2023/08/08 08:23:23;;;;;;;3.17;1.60;;;19.90;99.90;;;;;;4963598;28;20144;-87
2023/08/08 08:25:50;;;;;;;3.55;1.58;;;19.90;99.90;;;;;;4951802;28;20027;-87
2023/08/08 08:28:16;;;;;;;3.40;1.23;;;19.90;99.90;;;;;;4955977;28;20026;-90
2023/08/08 08:30:41;;;;;;;2.50;1.25;;;19.90;99.90;;;;;;4948867;28;20032;-89
2023/08/08 08:33:07;;;;;;;3.08;1.42;;;20.00;99.90;;;;;;4958789;28;20029;-84
2023/08/08 08:35:37;;;;;;;2.40;1.20;;;20.00;99.90;;;;;;4961447;28;20035;-86
2023/08/08 08:38:03;;;;;;;4.38;1.52;;;20.00;99.90;;;;;;4957925;28;20518;-84
2023/08/08 08:40:33;;;;;;;1.63;1.15;;;20.00;99.90;;;;;;4964363;28;20117;-91
2023/08/08 08:43:00;;;;;;;3.50;1.55;;;20.00;99.90;;;;;;4936394;28;20069;-88
2023/08/08 08:45:28;;;;;;;3.80;1.20;;;20.00;99.90;;;;;;4933012;28;20361;-86
2023/08/08 08:47:56;;;;;;;4.78;1.45;;;20.10;99.90;;;;;;4978349;28;20101;-87
2023/08/08 08:50:26;;;;;;;4.38;1.30;;;21.20;99.90;;;;;;4927772;28;20148;-90
2023/08/08 08:52:52;;;;;;;5.20;1.60;;;20.20;99.90;;;;;;4965770;28;20029;-88
2023/08/08 08:55:18;;;;;;;3.15;1.48;;;20.20;99.90;;;;;;4946496;28;20457;-90
2023/08/08 08:57:45;;;;;;;3.30;1.60;;;20.20;99.90;;;;;;4951626;28;20679;-88
2023/08/08 09:00:11;;;;;;;3.63;1.80;;;20.30;99.90;;;;;;4937903;28;20132;-85
2023/08/08 09:02:37;;;;;;;3.92;1.70;;;20.30;99.90;;;;;;4941502;28;20729;-86
2023/08/08 09:05:04;;;;;;;4.60;1.80;;;20.50;99.90;;;;;;4932845;28;20134;-86
2023/08/08 09:07:32;;;;;;;2.80;1.60;;;20.40;99.90;;;;;;4949810;28;20531;-88
2023/08/08 09:09:58;;;;;;;3.00;1.77;;;20.50;99.90;;;;;;4950986;28;20508;-86
2023/08/08 09:12:24;;;;;;;3.60;1.90;;;20.50;99.90;;;;;;4953921;28;20189;-88
2023/08/08 09:14:56;;;;;;;3.43;2.17;;;20.60;99.90;;;;;;4964760;28;20362;-86
2023/08/08 09:17:24;;;;;;;4.10;2.00;;;20.60;99.90;;;;;;4964051;28;20324;-90
2023/08/08 09:19:50;;;;;;;4.50;1.80;;;20.70;99.90;;;;;;4970280;28;20031;-84
2023/08/08 09:22:15;;;;;;;2.73;1.73;;;20.80;99.90;;;;;;4931742;28;21232;-88
2023/08/08 09:24:42;;;;;;;2.75;2.03;;;20.90;99.90;;;;;;4938577;28;20147;-84
2023/08/08 09:27:09;;;;;;;4.50;2.20;;;21.10;99.90;;;;;;4944889;28;20062;-89
2023/08/08 09:29:36;;;;;;;2.97;1.92;;;21.20;99.90;;;;;;4950621;28;20151;-85
2023/08/08 09:32:06;;;;;;;3.10;1.80;;;21.30;99.90;;;;;;4951256;28;20173;-85
2023/08/08 09:34:32;;;;;;;3.17;2.00;;;21.50;99.90;;;;;;4958729;28;20121;-86
2023/08/08 09:36:59;;;;;;;2.67;1.80;;;21.50;99.90;;;;;;4939174;28;20240;-91
2023/08/08 09:39:26;;;;;;;3.78;1.90;;;21.60;99.90;;;;;;4952196;28;20722;-85
2023/08/08 09:41:51;;;;;;;2.97;1.75;;;21.70;99.90;;;;;;4960367;28;20579;-85
2023/08/08 09:44:17;;;;;;;4.10;1.60;;;21.80;99.90;;;;;;4946922;28;20026;-86
2023/08/08 09:46:43;;;;;;;3.08;1.70;;;22.00;99.90;;;;;;4949872;28;20018;-85
2023/08/08 09:49:12;;;;;;;2.27;1.50;;;21.90;99.90;;;;;;4950760;28;20346;-88
2023/08/08 09:51:38;;;;;;;2.08;1.70;;;21.90;99.90;;;;;;4925262;28;20282;-88
2023/08/08 09:54:06;;;;;;;4.45;1.75;;;21.80;99.90;;;;;;4969498;28;20019;-85
2023/08/08 09:56:33;;;;;;;3.25;1.60;;;21.70;99.90;;;;;;4956641;28;20023;-88
2023/08/08 09:59:00;;;;;;;4.60;1.80;;;21.60;99.90;;;;;;4940259;28;20043;-85
2023/08/08 10:01:27;;;;;;;3.87;2.13;;;21.50;99.90;;;;;;4936048;28;20230;-86
2023/08/08 10:03:56;;;;;;;3.50;2.00;;;21.40;99.90;;;;;;4865956;28;2022367;-84
2023/08/08 10:06:21;;;;;;;3.05;1.92;;;21.30;99.90;;;;;;4944545;28;20265;-82
2023/08/08 10:08:47;;;;;;;2.03;1.70;;;21.30;99.90;;;;;;4969551;28;20074;-88
2023/08/08 10:11:14;;;;;;;2.60;1.80;;;21.30;99.90;;;;;;4964096;28;20272;-85
2023/08/08 10:13:49;;;;;;;3.40;1.92;;;21.30;99.90;;;;;;4957621;28;20084;-90
2023/08/08 10:16:17;;;;;;;4.00;2.10;;;21.30;99.90;;;;;;4933712;28;20697;-89
2023/08/08 10:18:43;;;;;;;2.97;2.03;;;21.40;99.90;;;;;;4977456;28;20412;-84
2023/08/08 10:21:10;;;;;;;2.30;1.80;;;21.50;99.90;;;;;;4953508;28;20022;-87
2023/08/08 10:23:37;;;;;;;2.97;1.90;;;21.60;99.90;;;;;;4967928;28;20030;-84
2023/08/08 10:26:03;;;;;;;2.70;1.83;;;21.70;99.90;;;;;;4966787;28;20026;-84
2023/08/08 10:28:32;;;;;;;3.33;2.42;;;21.70;99.90;;;;;;4948418;28;20049;-90
2023/08/08 10:31:02;;;;;;;2.50;1.95;;;21.80;99.90;;;;;;4948585;28;20034;-86
2023/08/08 10:33:39;;;;;;;2.97;2.10;;;21.70;99.90;;;;;;4972276;28;20342;-89
2023/08/08 10:36:09;;;;;;;2.78;2.00;;;21.70;99.90;;;;;;4979506;28;20104;-84
2023/08/08 10:38:58;;;;;;;2.95;2.10;;;21.60;99.90;;;;;;4959479;28;20117;-90
2023/08/08 10:41:26;;;;;;;2.63;2.15;;;21.70;99.90;;;;;;4968408;28;20340;-90
2023/08/08 10:43:57;;;;;;;2.75;2.00;;;21.80;99.90;;;;;;4952756;28;20057;-86
2023/08/08 10:46:31;;;;;;;3.27;2.00;;;21.90;99.90;;;;;;4954679;28;20034;-86
2023/08/08 10:48:59;;;;;;;4.13;2.10;;;22.10;99.90;;;;;;4947980;28;20404;-86
2023/08/08 10:51:39;;;;;;;3.17;2.30;;;22.30;99.90;;;;;;4957552;28;20546;-88
2023/08/08 10:54:30;;;;;;;3.05;2.10;;;22.40;99.90;;;;;;4929886;28;20039;-88
2023/08/08 10:57:00;;;;;;;2.97;2.10;;;22.50;99.90;;;;;;4985107;28;20110;-85
2023/08/08 10:59:36;;;;;;;5.60;2.53;;;22.60;99.90;;;;;;4947152;28;20066;-91
2023/08/08 11:02:01;;;;;;;3.65;2.40;;;22.60;99.90;;;;;;4934772;28;20130;-84
2023/08/08 11:04:30;;;;;;;4.05;2.25;;;22.90;99.90;;;;;;4973746;28;20141;-86
2023/08/08 11:06:56;;;;;;;4.93;2.38;;;22.70;99.90;;;;;;4954487;28;20398;-85
2023/08/08 11:09:22;;;;;;;3.85;2.63;;;22.80;99.90;;;;;;4918133;28;20042;-85
2023/08/08 11:11:48;;;;;;;3.00;2.60;;;22.90;99.90;;;;;;4938348;28;20017;-89
2023/08/08 11:14:19;;;;;;;3.53;2.42;;;23.00;99.90;;;;;;4960818;28;20582;-86
2023/08/08 11:16:46;;;;;;;2.40;2.20;;;23.10;99.90;;;;;;4939154;28;20033;-86
2023/08/08 11:19:12;;;;;;;2.95;2.30;;;23.20;99.90;;;;;;4961175;28;20022;-86
2023/08/08 11:21:41;;;;;;;2.00;1.77;;;23.20;99.90;;;;;;4942286;28;20034;-86
2023/08/08 11:24:08;;;;;;;2.35;1.70;;;23.20;99.90;;;;;;4926061;28;20090;-83
2023/08/08 11:26:39;;;;;;;2.88;1.85;;;23.20;99.90;;;;;;4983414;28;20566;-89
2023/08/08 11:29:05;;;;;;;2.00;1.50;;;23.10;99.90;;;;;;4963106;28;20128;-87
2023/08/08 11:31:33;;;;;;;2.72;1.90;;;23.00;99.90;;;;;;4969579;28;20030;-86
2023/08/08 11:33:59;;;;;;;3.63;1.70;;;23.00;99.90;;;;;;4958913;28;20014;-85
2023/08/08 11:36:29;;;;;;;2.03;1.60;;;23.00;99.90;;;;;;4951017;28;20301;-90
2023/08/08 11:38:56;;;;;;;2.47;1.70;;;23.10;99.90;;;;;;4959192;28;20028;-83
2023/08/08 11:41:23;;;;;;;2.33;1.52;;;23.20;99.90;;;;;;4954356;28;20050;-85
2023/08/08 11:43:51;;;;;;;2.42;1.77;;;23.20;99.90;;;;;;4982739;28;20031;-88
2023/08/08 11:46:17;;;;;;;2.00;1.60;;;23.00;99.90;;;;;;4951151;28;20057;-88
2023/08/08 11:48:46;;;;;;;2.20;1.60;;;23.20;99.90;;;;;;4968822;28;20488;-84
2023/08/08 11:51:14;;;;;;;2.85;1.65;;;23.20;99.90;;;;;;4948353;28;20261;-85
2023/08/08 11:53:50;;;;;;;2.53;1.63;;;23.20;99.90;;;;;;4979407;28;20099;-84
2023/08/08 11:56:16;;;;;;;2.15;1.67;;;23.20;99.90;;;;;;4933390;28;20201;-88
2023/08/08 11:58:41;;;;;;;2.47;1.60;;;23.00;99.90;;;;;;4948903;28;20106;-89
2023/08/08 12:01:08;;;;;;;2.78;2.08;;;23.00;99.90;;;;;;4961169;28;20034;-85
2023/08/08 12:03:38;;;;;;;2.78;1.80;;;23.00;99.90;;;;;;4974172;28;20033;-85
2023/08/08 12:06:12;;;;;;;2.70;1.90;;;22.90;99.90;;;;;;4962263;28;20133;-86
2023/08/08 12:08:40;;;;;;;2.92;1.98;;;23.00;99.90;;;;;;4969565;28;20156;-87
2023/08/08 12:11:05;;;;;;;2.25;1.70;;;23.10;99.90;;;;;;4958997;28;20034;-84
2023/08/08 12:13:32;;;;;;;2.90;1.60;;;23.10;99.90;;;;;;4963401;28;20034;-87
2023/08/08 12:15:59;;;;;;;2.45;2.08;;;23.20;99.90;;;;;;4962431;28;20022;-86
2023/08/08 12:18:24;;;;;;;3.03;1.63;;;23.40;99.90;;;;;;4942396;28;20034;-86
2023/08/08 12:20:50;;;;;;;2.45;1.52;;;23.50;99.90;;;;;;4949721;28;20428;-87
2023/08/08 12:23:16;;;;;;;3.13;1.50;;;21.70;99.90;;;;;;4952914;28;20027;-85
2023/08/08 12:25:42;;;;;;;2.53;1.40;;;23.70;99.90;;;;;;4948457;28;20351;-88
2023/08/08 12:28:08;;;;;;;1.53;1.30;;;23.80;99.90;;;;;;4966387;28;20669;-86
2023/08/08 12:30:34;;;;;;;3.33;1.70;;;23.90;99.90;;;;;;4968521;28;20023;-83
2023/08/08 12:33:00;;;;;;;1.63;1.43;;;24.00;99.90;;;;;;4960656;28;20060;-84
2023/08/08 12:35:27;;;;;;;2.15;1.60;;;24.30;99.90;;;;;;4956837;28;20968;-86
2023/08/08 12:37:53;;;;;;;2.33;1.50;;;24.50;99.90;;;;;;4952126;28;20405;-87
2023/08/08 12:40:19;;;;;;;2.08;1.58;;;24.80;99.90;;;;;;4921953;28;26408;-84
2023/08/08 12:42:45;;;;;;;1.65;1.40;;;25.10;99.90;;;;;;4973754;28;20120;-89
2023/08/08 12:45:11;;;;;;;1.57;1.30;;;25.30;99.90;;;;;;4951007;28;20120;-86